createdAt,value
2016-10-01T00:00:19.887Z,0
2016-10-01T00:01:20.564Z,0
2016-10-01T00:02:21.258Z,0
2016-10-01T00:03:21.970Z,0
2016-10-01T00:04:22.650Z,0
2016-10-01T00:05:23.334Z,0
2016-10-01T00:06:24.003Z,0
2016-10-01T00:07:24.688Z,0
2016-10-01T00:08:25.363Z,0
2016-10-01T00:09:26.043Z,0
2016-10-01T00:10:26.748Z,0
2016-10-01T00:11:27.419Z,0
2016-10-01T00:12:28.112Z,0
2016-10-01T00:13:28.803Z,0
2016-10-01T00:14:29.477Z,0
2016-10-01T00:15:30.180Z,0
2016-10-01T00:16:30.849Z,0
2016-10-01T00:17:31.547Z,0
2016-10-01T00:18:32.225Z,0
2016-10-01T00:19:32.901Z,0
2016-10-01T00:20:33.580Z,0
2016-10-01T00:21:34.274Z,0
2016-10-01T00:22:34.960Z,0
2016-10-01T00:23:35.668Z,0
2016-10-01T00:24:36.364Z,0
2016-10-01T00:25:37.077Z,0
2016-10-01T00:26:37.752Z,0
2016-10-01T00:27:38.428Z,0
2016-10-01T00:28:39.132Z,0
2016-10-01T00:29:39.825Z,0
2016-10-01T00:30:40.512Z,0
2016-10-01T00:31:41.203Z,0
2016-10-01T00:32:41.886Z,0
2016-10-01T00:33:42.574Z,0
2016-10-01T00:34:43.291Z,0
2016-10-01T00:35:43.973Z,0
2016-10-01T00:36:44.662Z,0
2016-10-01T00:37:45.359Z,0
2016-10-01T00:38:46.020Z,0
2016-10-01T00:39:46.694Z,0
2016-10-01T00:40:47.408Z,0
2016-10-01T00:41:48.088Z,0
2016-10-01T00:42:48.769Z,0
2016-10-01T00:43:49.443Z,0
2016-10-01T00:44:50.141Z,0
2016-10-01T00:45:50.829Z,0
2016-10-01T00:46:51.514Z,0
2016-10-01T00:47:52.214Z,0
2016-10-01T00:48:52.896Z,0
2016-10-01T00:49:53.572Z,0
2016-10-01T00:50:54.251Z,0
2016-10-01T00:51:54.945Z,0
2016-10-01T00:52:55.646Z,0
2016-10-01T00:53:56.319Z,0
2016-10-01T00:54:56.993Z,0
2016-10-01T00:55:57.661Z,0
2016-10-01T00:56:58.330Z,0
2016-10-01T00:57:59.006Z,0
2016-10-01T00:58:59.677Z,0
2016-10-01T01:00:00.375Z,0
2016-10-01T01:01:01.056Z,0
2016-10-01T01:02:01.744Z,0
2016-10-01T01:03:02.418Z,0
2016-10-01T01:04:03.091Z,0
2016-10-01T01:05:03.797Z,0
2016-10-01T01:06:04.469Z,0
2016-10-01T01:07:05.157Z,0
2016-10-01T01:08:05.847Z,0
2016-10-01T01:09:06.536Z,0
2016-10-01T01:10:07.245Z,0
2016-10-01T01:11:07.946Z,0
2016-10-01T01:12:08.671Z,0
2016-10-01T01:13:09.362Z,0
2016-10-01T01:14:10.024Z,0
2016-10-01T01:15:10.707Z,0
2016-10-01T01:16:11.380Z,0
2016-10-01T01:17:12.052Z,0
2016-10-01T01:18:12.728Z,0
2016-10-01T01:19:13.402Z,0
2016-10-01T01:20:14.073Z,0
2016-10-01T01:21:14.749Z,0
2016-10-01T01:22:15.469Z,0
2016-10-01T01:23:16.143Z,0
2016-10-01T01:24:16.814Z,0
2016-10-01T01:25:17.485Z,0
2016-10-01T01:26:18.154Z,0
2016-10-01T01:27:18.833Z,0
2016-10-01T01:28:19.520Z,0
2016-10-01T01:29:20.214Z,0
2016-10-01T01:30:20.891Z,0
2016-10-01T01:31:21.569Z,0
2016-10-01T01:32:22.246Z,0
2016-10-01T01:33:22.937Z,0
2016-10-01T01:34:23.611Z,0
2016-10-01T01:35:24.300Z,0
2016-10-01T01:36:24.970Z,0
2016-10-01T01:37:25.649Z,0
2016-10-01T01:38:26.354Z,0
2016-10-01T01:39:27.044Z,0
2016-10-01T01:40:27.721Z,0
2016-10-01T01:41:28.399Z,0
2016-10-01T01:42:29.068Z,0
2016-10-01T01:43:29.745Z,0
2016-10-01T01:44:30.424Z,0
2016-10-01T01:45:31.109Z,0
2016-10-01T01:46:31.794Z,0
2016-10-01T01:47:32.514Z,0
2016-10-01T01:48:33.193Z,0
2016-10-01T01:49:33.882Z,0
2016-10-01T01:50:34.582Z,0
2016-10-01T01:51:35.254Z,0
2016-10-01T01:52:35.927Z,0
2016-10-01T01:53:36.598Z,0
2016-10-01T01:54:37.270Z,0
2016-10-01T01:55:37.940Z,0
2016-10-01T01:56:38.615Z,0
2016-10-01T01:57:39.296Z,0
2016-10-01T01:58:39.960Z,0
2016-10-01T01:59:40.633Z,0
2016-10-01T02:00:41.314Z,0
2016-10-01T02:01:41.986Z,0
2016-10-01T02:02:42.654Z,0
2016-10-01T02:03:43.329Z,0
2016-10-01T02:04:44.003Z,0
2016-10-01T02:05:44.687Z,0
2016-10-01T02:06:45.364Z,0
2016-10-01T02:07:46.067Z,0
2016-10-01T02:08:46.741Z,0
2016-10-01T02:09:47.413Z,0
2016-10-01T02:10:48.089Z,0
2016-10-01T02:11:48.757Z,0
2016-10-01T02:12:49.431Z,0
2016-10-01T02:13:50.103Z,0
2016-10-01T02:14:50.770Z,0
2016-10-01T02:15:51.454Z,0
2016-10-01T02:16:52.115Z,0
2016-10-01T02:17:52.788Z,0
2016-10-01T02:18:53.472Z,0
2016-10-01T02:19:54.147Z,0
2016-10-01T02:20:54.846Z,0
2016-10-01T02:21:55.528Z,0
2016-10-01T02:22:56.200Z,0
2016-10-01T02:23:56.875Z,0
2016-10-01T02:24:57.553Z,0
2016-10-01T02:25:58.243Z,0
2016-10-01T02:26:58.931Z,0
2016-10-01T02:27:59.620Z,0
2016-10-01T02:29:00.304Z,0
2016-10-01T02:30:01.001Z,0
2016-10-01T02:31:01.672Z,0
2016-10-01T02:32:02.347Z,0
2016-10-01T02:33:03.024Z,0
2016-10-01T02:34:03.736Z,0
2016-10-01T02:35:04.410Z,0
2016-10-01T02:36:05.086Z,0
2016-10-01T02:37:05.774Z,0
2016-10-01T02:38:06.447Z,0
2016-10-01T02:39:07.137Z,0
2016-10-01T02:40:07.813Z,0
2016-10-01T02:41:08.504Z,0
2016-10-01T02:42:09.194Z,0
2016-10-01T02:43:09.877Z,0
2016-10-01T02:44:10.560Z,0
2016-10-01T02:45:11.244Z,0
2016-10-01T02:46:11.916Z,0
2016-10-01T02:47:12.593Z,0
2016-10-01T02:48:13.283Z,0
2016-10-01T02:49:13.951Z,0
2016-10-01T02:50:14.630Z,0
2016-10-01T02:51:15.331Z,0
2016-10-01T02:52:16.003Z,0
2016-10-01T02:53:16.675Z,0
2016-10-01T02:54:17.361Z,0
2016-10-01T02:55:18.033Z,0
2016-10-01T02:56:18.745Z,0
2016-10-01T02:57:19.413Z,0
2016-10-01T02:58:20.088Z,0
2016-10-01T02:59:20.761Z,0
2016-10-01T03:00:21.436Z,0
2016-10-01T03:01:22.113Z,0
2016-10-01T03:02:22.798Z,0
2016-10-01T03:03:23.476Z,0
2016-10-01T03:04:24.155Z,0
2016-10-01T03:05:24.830Z,0
2016-10-01T03:06:25.525Z,0
2016-10-01T03:07:26.197Z,0
2016-10-01T03:08:26.885Z,0
2016-10-01T03:09:27.559Z,0
2016-10-01T03:10:28.253Z,0
2016-10-01T03:11:28.951Z,0
2016-10-01T03:12:29.641Z,0
2016-10-01T03:13:30.315Z,0
2016-10-01T03:14:30.995Z,0
2016-10-01T03:15:31.682Z,0
2016-10-01T03:16:32.365Z,0
2016-10-01T03:17:33.037Z,0
2016-10-01T03:18:33.730Z,0
2016-10-01T03:19:34.411Z,0
2016-10-01T03:20:35.092Z,0
2016-10-01T03:21:35.784Z,0
2016-10-01T03:22:36.452Z,0
2016-10-01T03:23:37.139Z,0
2016-10-01T03:24:37.839Z,0
2016-10-01T03:25:38.523Z,0
2016-10-01T03:26:39.205Z,0
2016-10-01T03:27:39.878Z,0
2016-10-01T03:28:40.547Z,0
2016-10-01T03:29:41.240Z,0
2016-10-01T03:30:41.924Z,0
2016-10-01T03:31:42.599Z,0
2016-10-01T03:32:43.306Z,0
2016-10-01T03:33:43.998Z,0
2016-10-01T03:34:44.692Z,0
2016-10-01T03:35:45.358Z,0
2016-10-01T03:36:46.031Z,0
2016-10-01T03:37:46.705Z,0
2016-10-01T03:38:47.402Z,0
2016-10-01T03:39:48.080Z,0
2016-10-01T03:40:48.758Z,0
2016-10-01T03:41:49.445Z,0
2016-10-01T03:42:50.119Z,0
2016-10-01T03:43:50.798Z,0
2016-10-01T03:44:51.462Z,0
2016-10-01T03:45:52.138Z,0
2016-10-01T03:46:52.839Z,0
2016-10-01T03:47:53.519Z,0
2016-10-01T03:48:54.191Z,0
2016-10-01T03:49:54.862Z,0
2016-10-01T03:50:55.553Z,0
2016-10-01T03:51:56.225Z,0
2016-10-01T03:52:56.919Z,0
2016-10-01T03:53:57.602Z,0
2016-10-01T03:54:58.291Z,0
2016-10-01T03:55:58.975Z,0
2016-10-01T03:56:59.653Z,0
2016-10-01T03:58:00.325Z,0
2016-10-01T03:59:01.036Z,0
2016-10-01T04:00:01.718Z,0
2016-10-01T04:01:02.403Z,0
2016-10-01T04:02:03.073Z,0
2016-10-01T04:03:03.753Z,0
2016-10-01T04:04:04.444Z,0
2016-10-01T04:05:05.136Z,0
2016-10-01T04:06:05.819Z,0
2016-10-01T04:07:06.489Z,0
2016-10-01T04:08:07.163Z,0
2016-10-01T04:09:07.830Z,0
2016-10-01T04:10:08.503Z,0
2016-10-01T04:11:09.182Z,0
2016-10-01T04:12:09.881Z,0
2016-10-01T04:13:10.565Z,0
2016-10-01T04:14:11.242Z,0
2016-10-01T04:15:11.918Z,0
2016-10-01T04:16:12.630Z,0
2016-10-01T04:17:13.306Z,0
2016-10-01T04:18:14.000Z,0
2016-10-01T04:19:14.689Z,0
2016-10-01T04:20:15.377Z,0
2016-10-01T04:21:16.048Z,0
2016-10-01T04:22:16.719Z,0
2016-10-01T04:23:17.410Z,0
2016-10-01T04:24:18.082Z,0
2016-10-01T04:25:18.782Z,0
2016-10-01T04:26:19.461Z,0
2016-10-01T04:27:20.133Z,0
2016-10-01T04:28:20.806Z,0
2016-10-01T04:29:21.480Z,0
2016-10-01T04:30:22.154Z,0
2016-10-01T04:31:22.861Z,0
2016-10-01T04:32:23.545Z,0
2016-10-01T04:33:24.214Z,0
2016-10-01T04:34:24.895Z,0
2016-10-01T04:35:25.568Z,0
2016-10-01T04:36:26.245Z,0
2016-10-01T04:37:26.925Z,0
2016-10-01T04:38:27.608Z,0
2016-10-01T04:39:28.305Z,0
2016-10-01T04:40:28.982Z,0
2016-10-01T04:41:29.659Z,0
2016-10-01T04:42:30.349Z,0
2016-10-01T04:43:31.036Z,0
2016-10-01T04:44:31.728Z,0
2016-10-01T04:45:32.398Z,0
2016-10-01T04:46:33.069Z,0
2016-10-01T04:47:33.734Z,0
2016-10-01T04:48:34.413Z,0
2016-10-01T04:49:35.086Z,0
2016-10-01T04:50:35.778Z,0
2016-10-01T04:51:36.461Z,0
2016-10-01T04:52:37.152Z,0
2016-10-01T04:53:37.824Z,0
2016-10-01T04:54:38.497Z,0
2016-10-01T04:55:39.173Z,0
2016-10-01T04:56:39.863Z,0
2016-10-01T04:57:40.542Z,0
2016-10-01T04:58:41.214Z,0
2016-10-01T04:59:41.907Z,0
2016-10-01T05:00:42.581Z,0
2016-10-01T05:01:43.254Z,0
2016-10-01T05:02:43.923Z,0
2016-10-01T05:03:44.598Z,0
2016-10-01T05:04:45.287Z,0
2016-10-01T05:05:46.016Z,0
2016-10-01T05:06:46.699Z,0
2016-10-01T05:07:47.375Z,0
2016-10-01T05:08:48.081Z,0
2016-10-01T05:09:48.755Z,0
2016-10-01T05:10:49.425Z,0
2016-10-01T05:11:50.098Z,0
2016-10-01T05:12:50.773Z,0
2016-10-01T05:13:51.443Z,0
2016-10-01T05:14:52.124Z,0
2016-10-01T05:15:52.785Z,0
2016-10-01T05:16:53.456Z,0
2016-10-01T05:17:54.132Z,0
2016-10-01T05:18:54.810Z,0
2016-10-01T05:19:55.480Z,0
2016-10-01T05:20:56.165Z,0
2016-10-01T05:21:56.838Z,0
2016-10-01T05:22:57.523Z,0
2016-10-01T05:23:58.213Z,5
2016-10-01T05:24:58.894Z,5
2016-10-01T05:25:59.579Z,5
2016-10-01T05:27:00.284Z,5
2016-10-01T05:28:00.955Z,5
2016-10-01T05:29:01.628Z,5
2016-10-01T05:30:02.299Z,5
2016-10-01T05:31:02.972Z,5
2016-10-01T05:32:03.701Z,5
2016-10-01T05:33:04.374Z,5
2016-10-01T05:34:05.058Z,5
2016-10-01T05:35:05.762Z,10
2016-10-01T05:36:06.446Z,10
2016-10-01T05:37:07.126Z,10
2016-10-01T05:38:07.802Z,10
2016-10-01T05:39:08.479Z,15
2016-10-01T05:40:09.142Z,15
2016-10-01T05:41:09.814Z,15
2016-10-01T05:42:10.484Z,15
2016-10-01T05:43:11.161Z,15
2016-10-01T05:44:11.829Z,20
2016-10-01T05:45:12.510Z,20
2016-10-01T05:46:13.191Z,20
2016-10-01T05:47:13.885Z,20
2016-10-01T05:48:14.563Z,20
2016-10-01T05:49:15.239Z,20
2016-10-01T05:50:15.914Z,25
2016-10-01T05:51:16.585Z,25
2016-10-01T05:52:17.258Z,25
2016-10-01T05:53:17.929Z,30
2016-10-01T05:54:18.607Z,30
2016-10-01T05:55:19.295Z,30
2016-10-01T05:56:19.984Z,25
2016-10-01T05:57:20.663Z,25
2016-10-01T05:58:21.342Z,25
2016-10-01T05:59:22.012Z,25
2016-10-01T06:00:22.685Z,20
2016-10-01T06:01:23.360Z,20
2016-10-01T06:02:24.067Z,20
2016-10-01T06:03:24.753Z,20
2016-10-01T06:04:25.430Z,20
2016-10-01T06:05:26.111Z,20
2016-10-01T06:06:26.787Z,25
2016-10-01T06:07:27.454Z,25
2016-10-01T06:08:28.127Z,30
2016-10-01T06:09:28.808Z,30
2016-10-01T06:10:29.485Z,35
2016-10-01T06:11:30.163Z,35
2016-10-01T06:12:30.866Z,35
2016-10-01T06:13:31.539Z,40
2016-10-01T06:14:32.213Z,45
2016-10-01T06:15:32.890Z,55
2016-10-01T06:16:33.589Z,65
2016-10-01T06:17:34.278Z,70
2016-10-01T06:18:34.954Z,70
2016-10-01T06:19:35.639Z,65
2016-10-01T06:20:36.343Z,65
2016-10-01T06:21:37.024Z,65
2016-10-01T06:22:37.694Z,65
2016-10-01T06:23:38.380Z,65
2016-10-01T06:24:39.061Z,70
2016-10-01T06:25:39.745Z,75
2016-10-01T06:26:40.507Z,70
2016-10-01T06:27:41.233Z,70
2016-10-01T06:28:42.188Z,70
2016-10-01T06:29:42.785Z,70
2016-10-01T06:30:43.461Z,65
2016-10-01T06:31:44.142Z,65
2016-10-01T06:32:44.830Z,60
2016-10-01T06:33:45.526Z,50
2016-10-01T06:34:46.213Z,45
2016-10-01T06:35:46.899Z,45
2016-10-01T06:36:47.572Z,45
2016-10-01T06:37:48.244Z,45
2016-10-01T06:38:48.917Z,45
2016-10-01T06:39:49.593Z,40
2016-10-01T06:40:50.280Z,40
2016-10-01T06:41:50.957Z,40
2016-10-01T06:42:51.674Z,35
2016-10-01T06:43:52.347Z,35
2016-10-01T06:44:53.017Z,40
2016-10-01T06:45:53.693Z,50
2016-10-01T06:46:54.381Z,55
2016-10-01T06:47:55.059Z,55
2016-10-01T06:48:55.779Z,55
2016-10-01T06:49:56.454Z,60
2016-10-01T06:50:57.168Z,65
2016-10-01T06:51:57.848Z,65
2016-10-01T06:52:58.553Z,65
2016-10-01T06:53:59.252Z,70
2016-10-01T06:54:59.933Z,75
2016-10-01T06:56:00.630Z,80
2016-10-01T06:57:01.316Z,85
2016-10-01T06:58:02.007Z,85
2016-10-01T06:59:02.662Z,90
2016-10-01T07:00:03.340Z,100
2016-10-01T07:01:04.017Z,110
2016-10-01T07:02:04.704Z,110
2016-10-01T07:03:05.390Z,115
2016-10-01T07:04:06.078Z,125
2016-10-01T07:05:06.754Z,140
2016-10-01T07:06:07.437Z,145
2016-10-01T07:07:08.129Z,145
2016-10-01T07:08:08.808Z,150
2016-10-01T07:09:09.496Z,165
2016-10-01T07:10:10.179Z,170
2016-10-01T07:11:10.867Z,190
2016-10-01T07:12:11.558Z,210
2016-10-01T07:13:12.257Z,255
2016-10-01T07:14:12.941Z,285
2016-10-01T07:15:13.631Z,290
2016-10-01T07:16:14.340Z,325
2016-10-01T07:17:15.024Z,305
2016-10-01T07:18:15.698Z,275
2016-10-01T07:19:16.374Z,200
2016-10-01T07:20:17.074Z,195
2016-10-01T07:21:17.762Z,185
2016-10-01T07:22:18.441Z,180
2016-10-01T07:23:19.144Z,170
2016-10-01T07:24:19.828Z,165
2016-10-01T07:25:20.511Z,175
2016-10-01T07:26:21.218Z,190
2016-10-01T07:27:21.893Z,190
2016-10-01T07:28:22.590Z,175
2016-10-01T07:29:23.338Z,195
2016-10-01T07:30:24.051Z,225
2016-10-01T07:31:24.751Z,245
2016-10-01T07:32:25.462Z,255
2016-10-01T07:33:26.145Z,255
2016-10-01T07:34:26.865Z,265
2016-10-01T07:35:27.577Z,270
2016-10-01T07:36:28.302Z,235
2016-10-01T07:37:28.983Z,220
2016-10-01T07:38:29.692Z,220
2016-10-01T07:39:30.374Z,205
2016-10-01T07:40:31.094Z,180
2016-10-01T07:41:31.831Z,165
2016-10-01T07:42:32.538Z,155
2016-10-01T07:43:33.252Z,145
2016-10-01T07:44:34.355Z,130
2016-10-01T07:45:35.604Z,130
2016-10-01T07:46:36.311Z,125
2016-10-01T07:47:37.033Z,130
2016-10-01T07:48:37.767Z,135
2016-10-01T07:49:38.486Z,140
2016-10-01T07:50:39.186Z,135
2016-10-01T07:51:39.872Z,135
2016-10-01T07:52:40.584Z,140
2016-10-01T07:53:41.275Z,140
2016-10-01T07:54:41.961Z,140
2016-10-01T07:55:42.670Z,145
2016-10-01T07:56:43.413Z,145
2016-10-01T07:57:44.114Z,150
2016-10-01T07:58:44.832Z,145
2016-10-01T07:59:45.533Z,135
2016-10-01T08:00:46.271Z,135
2016-10-01T08:01:46.980Z,135
2016-10-01T08:02:47.683Z,140
2016-10-01T08:03:48.387Z,140
2016-10-01T08:04:49.072Z,135
2016-10-01T08:05:49.769Z,120
2016-10-01T08:06:50.445Z,115
2016-10-01T08:07:51.145Z,105
2016-10-01T08:08:51.833Z,100
2016-10-01T08:09:52.542Z,95
2016-10-01T08:10:53.243Z,95
2016-10-01T08:11:53.924Z,90
2016-10-01T08:12:54.695Z,90
2016-10-01T08:13:55.377Z,95
2016-10-01T08:14:56.074Z,95
2016-10-01T08:15:56.804Z,100
2016-10-01T08:16:57.494Z,105
2016-10-01T08:17:58.209Z,110
2016-10-01T08:18:58.885Z,115
2016-10-01T08:19:59.593Z,115
2016-10-01T08:21:00.273Z,120
2016-10-01T08:22:00.956Z,120
2016-10-01T08:23:01.648Z,125
2016-10-01T08:24:02.336Z,130
2016-10-01T08:25:03.044Z,140
2016-10-01T08:26:03.738Z,150
2016-10-01T08:27:04.444Z,165
2016-10-01T08:28:05.118Z,185
2016-10-01T08:29:05.813Z,205
2016-10-01T08:30:06.581Z,220
2016-10-01T08:31:07.305Z,220
2016-10-01T08:32:07.984Z,220
2016-10-01T08:33:08.701Z,220
2016-10-01T08:34:09.380Z,225
2016-10-01T08:35:10.145Z,215
2016-10-01T08:36:10.816Z,200
2016-10-01T08:37:11.510Z,200
2016-10-01T08:38:12.257Z,205
2016-10-01T08:39:12.983Z,215
2016-10-01T08:40:13.686Z,220
2016-10-01T08:41:14.380Z,225
2016-10-01T08:42:15.082Z,220
2016-10-01T08:43:15.794Z,215
2016-10-01T08:44:16.492Z,210
2016-10-01T08:45:17.208Z,205
2016-10-01T08:46:17.866Z,200
2016-10-01T08:47:18.563Z,200
2016-10-01T08:48:19.260Z,205
2016-10-01T08:49:19.969Z,205
2016-10-01T08:50:20.842Z,215
2016-10-01T08:51:21.510Z,225
2016-10-01T08:52:22.187Z,230
2016-10-01T08:53:22.937Z,230
2016-10-01T08:54:23.653Z,230
2016-10-01T08:55:24.424Z,230
2016-10-01T08:56:25.111Z,230
2016-10-01T08:57:25.824Z,235
2016-10-01T08:58:27.387Z,235
2016-10-01T08:59:28.119Z,240
2016-10-01T09:00:28.849Z,240
2016-10-01T09:01:29.768Z,235
2016-10-01T09:02:30.531Z,230
2016-10-01T09:03:31.212Z,225
2016-10-01T09:04:32.139Z,225
2016-10-01T09:05:32.923Z,235
2016-10-01T09:06:33.723Z,245
2016-10-01T09:07:34.531Z,250
2016-10-01T09:08:35.385Z,255
2016-10-01T09:09:36.140Z,250
2016-10-01T09:10:36.889Z,245
2016-10-01T09:11:37.625Z,240
2016-10-01T09:12:38.349Z,240
2016-10-01T09:13:39.117Z,245
2016-10-01T09:14:39.962Z,250
2016-10-01T09:15:40.712Z,250
2016-10-01T09:16:41.454Z,250
2016-10-01T09:17:42.232Z,245
2016-10-01T09:18:42.988Z,240
2016-10-01T09:19:43.778Z,230
2016-10-01T09:20:44.547Z,220
2016-10-01T09:21:46.602Z,215
2016-10-01T09:22:47.384Z,210
2016-10-01T09:23:48.150Z,205
2016-10-01T09:24:48.866Z,195
2016-10-01T09:25:49.694Z,185
2016-10-01T09:26:50.519Z,185
2016-10-01T09:27:51.279Z,175
2016-10-01T09:28:52.049Z,170
2016-10-01T09:29:53.064Z,165
2016-10-01T09:30:53.816Z,160
2016-10-01T09:31:54.607Z,165
2016-10-01T09:32:55.352Z,165
2016-10-01T09:33:56.100Z,170
2016-10-01T09:34:57.144Z,170
2016-10-01T09:35:57.964Z,175
2016-10-01T09:36:58.823Z,175
2016-10-01T09:37:59.581Z,175
2016-10-01T09:39:00.336Z,175
2016-10-01T09:40:01.101Z,185
2016-10-01T09:41:01.828Z,185
2016-10-01T09:42:02.580Z,190
2016-10-01T09:43:03.345Z,190
2016-10-01T09:44:04.297Z,190
2016-10-01T09:45:05.050Z,200
2016-10-01T09:46:05.800Z,210
2016-10-01T09:47:06.581Z,225
2016-10-01T09:48:07.321Z,235
2016-10-01T09:49:08.075Z,240
2016-10-01T09:50:08.828Z,235
2016-10-01T09:51:09.574Z,240
2016-10-01T09:52:10.337Z,245
2016-10-01T09:53:11.116Z,250
2016-10-01T09:54:11.874Z,240
2016-10-01T09:55:12.587Z,230
2016-10-01T09:56:13.358Z,225
2016-10-01T09:57:14.145Z,215
2016-10-01T09:58:14.892Z,205
2016-10-01T09:59:15.614Z,200
2016-10-01T10:00:16.311Z,195
2016-10-01T10:01:17.037Z,195
2016-10-01T10:02:17.746Z,190
2016-10-01T10:03:18.456Z,195
2016-10-01T10:04:19.164Z,190
2016-10-01T10:05:19.873Z,190
2016-10-01T10:06:20.558Z,190
2016-10-01T10:07:21.251Z,190
2016-10-01T10:08:21.958Z,185
2016-10-01T10:09:22.648Z,185
2016-10-01T10:10:23.350Z,190
2016-10-01T10:11:24.060Z,190
2016-10-01T10:12:24.818Z,185
2016-10-01T10:13:25.500Z,165
2016-10-01T10:14:26.233Z,155
2016-10-01T10:15:26.905Z,150
2016-10-01T10:16:27.710Z,145
2016-10-01T10:17:28.465Z,155
2016-10-01T10:18:29.122Z,165
2016-10-01T10:19:29.849Z,190
2016-10-01T10:20:30.550Z,205
2016-10-01T10:21:31.327Z,220
2016-10-01T10:22:32.056Z,240
2016-10-01T10:23:32.785Z,255
2016-10-01T10:24:33.609Z,260
2016-10-01T10:25:34.291Z,275
2016-10-01T10:26:35.070Z,300
2016-10-01T10:27:35.783Z,290
2016-10-01T10:28:36.482Z,295
2016-10-01T10:29:37.203Z,285
2016-10-01T10:30:37.896Z,260
2016-10-01T10:31:38.585Z,265
2016-10-01T10:32:39.389Z,295
2016-10-01T10:33:40.074Z,325
2016-10-01T10:34:42.017Z,330
2016-10-01T10:35:43.888Z,290
2016-10-01T10:36:44.730Z,250
2016-10-01T10:37:46.925Z,240
2016-10-01T10:38:48.720Z,230
2016-10-01T10:39:49.254Z,235
2016-10-01T10:40:49.949Z,250
2016-10-01T10:41:50.669Z,260
2016-10-01T10:42:51.356Z,275
2016-10-01T10:43:52.147Z,290
2016-10-01T10:44:52.841Z,295
2016-10-01T10:45:53.697Z,295
2016-10-01T10:46:54.446Z,300
2016-10-01T10:47:55.199Z,305
2016-10-01T10:48:56.001Z,320
2016-10-01T10:49:56.777Z,295
2016-10-01T10:50:57.452Z,280
2016-10-01T10:51:58.205Z,290
2016-10-01T10:52:58.939Z,300
2016-10-01T10:53:59.671Z,320
2016-10-01T10:55:00.388Z,330
2016-10-01T10:56:01.143Z,320
2016-10-01T10:57:01.873Z,310
2016-10-01T10:58:02.634Z,295
2016-10-01T10:59:03.326Z,260
2016-10-01T11:00:04.043Z,240
2016-10-01T11:01:04.764Z,260
2016-10-01T11:02:05.611Z,270
2016-10-01T11:03:06.375Z,260
2016-10-01T11:04:07.071Z,265
2016-10-01T11:05:07.843Z,265
2016-10-01T11:06:09.749Z,275
2016-10-01T11:07:15.355Z,260
2016-10-01T11:08:19.867Z,270
2016-10-01T11:09:20.650Z,265
2016-10-01T11:10:21.409Z,275
2016-10-01T11:11:22.196Z,270
2016-10-01T11:12:22.970Z,245
2016-10-01T11:13:23.732Z,240
2016-10-01T11:14:24.450Z,245
2016-10-01T11:15:25.155Z,250
2016-10-01T11:16:25.935Z,240
2016-10-01T11:17:26.637Z,240
2016-10-01T11:18:27.351Z,230
2016-10-01T11:19:28.437Z,215
2016-10-01T11:20:29.139Z,215
2016-10-01T11:21:29.982Z,215
2016-10-01T11:22:30.604Z,210
2016-10-01T11:23:31.331Z,210
2016-10-01T11:24:32.003Z,210
2016-10-01T11:25:32.681Z,215
2016-10-01T11:26:33.377Z,230
2016-10-01T11:27:34.076Z,245
2016-10-01T11:28:34.784Z,250
2016-10-01T11:29:35.497Z,240
2016-10-01T11:30:36.209Z,255
2016-10-01T11:31:37.061Z,255
2016-10-01T11:32:37.786Z,275
2016-10-01T11:33:38.481Z,285
2016-10-01T11:34:39.236Z,275
2016-10-01T11:35:40.022Z,265
2016-10-01T11:36:42.852Z,260
2016-10-01T11:37:42.793Z,260
2016-10-01T11:38:43.591Z,260
2016-10-01T11:39:44.345Z,260
2016-10-01T11:40:45.036Z,260
2016-10-01T11:41:45.756Z,250
2016-10-01T11:42:46.973Z,275
2016-10-01T11:43:49.444Z,280
2016-10-01T11:44:48.733Z,265
2016-10-01T11:45:49.495Z,270
2016-10-01T11:46:50.193Z,265
2016-10-01T11:47:50.940Z,250
2016-10-01T11:48:51.639Z,245
2016-10-01T11:49:52.338Z,250
2016-10-01T11:50:54.015Z,250
2016-10-01T11:51:54.779Z,250
2016-10-01T11:52:58.974Z,260
2016-10-01T11:54:05.185Z,260
2016-10-01T11:55:09.725Z,250
2016-10-01T11:56:13.183Z,255
2016-10-01T11:57:13.504Z,255
2016-10-01T11:58:14.629Z,265
2016-10-01T11:59:15.083Z,265
2016-10-01T12:00:15.780Z,260
2016-10-01T12:01:16.497Z,245
2016-10-01T12:02:19.033Z,230
2016-10-01T12:03:19.173Z,215
2016-10-01T12:04:19.935Z,205
2016-10-01T12:05:22.183Z,205
2016-10-01T12:06:24.240Z,200
2016-10-01T12:07:25.513Z,210
2016-10-01T12:08:25.144Z,245
2016-10-01T12:09:25.833Z,270
2016-10-01T12:10:26.711Z,275
2016-10-01T12:11:27.835Z,270
2016-10-01T12:12:30.308Z,270
2016-10-01T12:13:31.082Z,270
2016-10-01T12:14:31.730Z,280
2016-10-01T12:15:32.409Z,270
2016-10-01T12:16:36.360Z,265
2016-10-01T12:17:42.823Z,270
2016-10-01T12:18:41.770Z,275
2016-10-01T12:19:46.496Z,270
2016-10-01T19:02:00.940Z,0
2016-10-01T19:03:01.741Z,0
2016-10-01T19:04:02.439Z,0
2016-10-01T19:05:03.120Z,0
2016-10-01T19:06:03.788Z,0
2016-10-01T19:07:04.521Z,0
2016-10-01T19:08:05.222Z,0
2016-10-01T19:09:05.952Z,0
2016-10-01T19:10:06.629Z,0
2016-10-01T19:11:07.359Z,0
2016-10-01T19:12:08.293Z,0
2016-10-01T19:13:09.049Z,0
2016-10-01T19:14:09.800Z,0
2016-10-01T19:15:10.611Z,0
2016-10-01T19:16:11.329Z,0
2016-10-01T19:17:12.061Z,0
2016-10-01T19:18:12.727Z,0
2016-10-01T19:19:13.452Z,0
2016-10-01T19:20:14.121Z,0
2016-10-01T19:21:14.823Z,0
2016-10-01T19:22:15.572Z,0
2016-10-01T19:23:16.437Z,0
2016-10-01T19:24:17.186Z,0
2016-10-01T19:25:18.116Z,0
2016-10-01T19:26:19.032Z,0
2016-10-01T19:27:19.803Z,0
2016-10-01T19:28:20.659Z,0
2016-10-01T19:29:21.688Z,0
2016-10-01T19:30:22.484Z,0
2016-10-01T19:31:23.175Z,0
2016-10-01T19:32:23.932Z,0
2016-10-01T19:33:24.697Z,0
2016-10-01T19:34:25.417Z,0
2016-10-01T19:35:26.263Z,0
2016-10-01T19:36:27.220Z,0
2016-10-01T19:37:27.919Z,0
2016-10-01T19:38:29.331Z,0
2016-10-01T19:39:30.553Z,0
2016-10-01T19:40:31.535Z,0
2016-10-01T19:41:32.329Z,0
2016-10-01T19:42:33.007Z,0
2016-10-01T19:43:33.757Z,0
2016-10-01T19:44:34.467Z,0
2016-10-01T19:45:35.291Z,0
2016-10-01T19:46:36.024Z,0
2016-10-01T19:47:36.705Z,0
2016-10-01T19:48:37.458Z,0
2016-10-01T19:49:38.153Z,0
2016-10-01T19:50:38.870Z,0
2016-10-01T19:51:39.587Z,0
2016-10-01T19:52:40.373Z,0
2016-10-01T19:53:41.110Z,0
2016-10-01T19:54:41.813Z,0
2016-10-01T19:55:42.490Z,0
2016-10-01T19:56:43.391Z,0
2016-10-01T19:57:44.070Z,0
2016-10-01T19:58:45.310Z,0
2016-10-01T19:59:46.006Z,0
2016-10-01T20:00:48.005Z,0
2016-10-01T20:01:49.609Z,0
2016-10-01T20:02:50.368Z,0
2016-10-01T20:03:51.187Z,0
2016-10-01T20:04:51.867Z,0
2016-10-01T20:05:52.635Z,0
2016-10-01T20:06:53.452Z,0
2016-10-01T20:07:54.164Z,0
2016-10-01T20:08:54.861Z,0
2016-10-01T20:09:55.594Z,0
2016-10-01T20:10:56.308Z,0
2016-10-01T20:11:57.184Z,0
2016-10-01T20:12:57.905Z,0
2016-10-01T20:13:58.770Z,0
2016-10-01T20:14:59.582Z,0
2016-10-01T20:16:00.373Z,0
2016-10-01T20:17:01.055Z,0
2016-10-01T20:18:01.842Z,0
2016-10-01T20:19:02.692Z,0
2016-10-01T20:20:03.422Z,0
2016-10-01T20:21:04.172Z,0
2016-10-01T20:22:04.910Z,0
2016-10-01T20:23:05.602Z,0
2016-10-01T20:24:06.284Z,0
2016-10-01T20:25:07.098Z,0
2016-10-01T20:26:07.922Z,0
2016-10-01T20:27:08.704Z,0
2016-10-01T20:28:09.564Z,0
2016-10-01T20:29:10.403Z,0
2016-10-01T20:30:11.182Z,0
2016-10-01T20:31:11.885Z,0
2016-10-01T20:32:12.648Z,0
2016-10-01T20:33:13.400Z,0
2016-10-01T20:34:14.120Z,0
2016-10-01T20:35:14.830Z,0
2016-10-01T20:36:15.667Z,0
2016-10-01T20:37:16.363Z,0
2016-10-01T20:38:17.143Z,0
2016-10-01T20:39:17.898Z,0
2016-10-01T20:40:18.574Z,0
2016-10-01T20:41:19.423Z,0
2016-10-01T20:42:20.200Z,0
2016-10-01T20:43:21.401Z,0
2016-10-01T20:44:22.136Z,0
2016-10-01T20:45:24.029Z,0
2016-10-01T20:46:24.902Z,0
2016-10-01T20:47:25.733Z,0
2016-10-01T20:48:26.508Z,0
2016-10-01T20:49:27.195Z,0
2016-10-01T20:50:27.918Z,0
2016-10-01T20:51:28.616Z,0
2016-10-01T20:52:29.333Z,0
2016-10-01T20:53:30.039Z,0
2016-10-01T20:54:30.722Z,0
2016-10-01T20:55:31.437Z,0
2016-10-01T20:56:32.139Z,0
2016-10-01T20:57:32.840Z,0
2016-10-01T20:58:33.537Z,0
2016-10-01T20:59:34.350Z,0
2016-10-01T21:00:35.079Z,0
2016-10-01T21:01:36.068Z,0
2016-10-01T21:02:36.806Z,0
2016-10-01T21:03:37.653Z,0
2016-10-01T21:04:38.475Z,0
2016-10-01T21:05:39.246Z,0
2016-10-01T21:06:39.981Z,0
2016-10-01T21:07:41.266Z,0
2016-10-01T21:08:41.937Z,0
2016-10-01T21:09:42.740Z,0
2016-10-01T21:10:43.459Z,0
2016-10-01T21:11:44.506Z,0
2016-10-01T21:12:45.211Z,0
2016-10-01T21:13:46.031Z,0